createdAt,value
2023-04-18T00:00:12.781Z,20.07
2023-04-18T00:02:45.559Z,20.04
2023-04-18T00:05:20.273Z,20.03
2023-04-18T00:07:50.906Z,20.00
2023-04-18T00:10:21.689Z,20.05
2023-04-18T00:12:52.505Z,20.01
2023-04-18T00:15:22.876Z,19.95
2023-04-18T00:17:54.574Z,19.93
2023-04-18T00:20:27.621Z,19.90
2023-04-18T00:23:00.489Z,19.81
2023-04-18T00:25:31.460Z,19.78
2023-04-18T00:28:02.148Z,19.78
2023-04-18T00:30:32.753Z,19.80
2023-04-18T00:33:04.834Z,19.78
2023-04-18T00:35:35.164Z,19.74
2023-04-18T00:38:05.322Z,19.80
2023-04-18T00:40:36.004Z,19.81
2023-04-18T00:43:06.316Z,19.84
2023-04-18T00:45:36.492Z,19.87
2023-04-18T00:48:06.805Z,19.88
2023-04-18T00:50:38.817Z,19.90
2023-04-18T00:53:13.998Z,19.94
2023-04-18T00:55:44.398Z,19.94
2023-04-18T00:58:14.533Z,20.01
2023-04-18T01:00:45.516Z,19.98
2023-04-18T01:03:16.156Z,19.98
2023-04-18T01:05:48.056Z,20.03
2023-04-18T01:08:21.281Z,20.03
2023-04-18T01:10:52.012Z,20.07
2023-04-18T01:13:23.110Z,20.04
2023-04-18T01:15:55.847Z,20.03
2023-04-18T01:18:27.695Z,20.04
2023-04-18T01:20:58.428Z,20.03
2023-04-18T01:23:29.461Z,20.01
2023-04-18T01:26:00.921Z,20.01
2023-04-18T01:28:31.976Z,20.03
2023-04-18T01:31:02.482Z,20.05
2023-04-18T01:33:32.516Z,20.04
2023-04-18T01:36:03.582Z,20.04
2023-04-18T01:38:35.713Z,20.03
2023-04-18T01:41:06.784Z,20.04
2023-04-18T01:43:36.890Z,20.00
2023-04-18T01:46:08.407Z,20.03
2023-04-18T01:48:39.354Z,20.05
2023-04-18T01:51:10.140Z,20.04
2023-04-18T01:53:41.179Z,20.04
2023-04-18T01:56:12.556Z,20.07
2023-04-18T01:58:45.768Z,20.05
2023-04-18T02:01:16.979Z,20.07
2023-04-18T02:03:48.224Z,20.01
2023-04-18T02:06:19.620Z,19.97
2023-04-18T02:08:51.853Z,19.97
2023-04-18T02:11:23.386Z,19.94
2023-04-18T02:14:19.144Z,19.91
2023-04-18T02:16:50.427Z,19.88
2023-04-18T02:19:20.741Z,19.85
2023-04-18T02:21:50.903Z,19.84
2023-04-18T02:24:22.292Z,19.83
2023-04-18T02:26:53.318Z,19.78
2023-04-18T02:29:23.717Z,19.73
2023-04-18T02:31:54.052Z,19.70
2023-04-18T02:34:24.635Z,19.66
2023-04-18T02:36:55.960Z,19.60
2023-04-18T02:39:26.521Z,19.62
2023-04-18T02:41:57.817Z,19.54
2023-04-18T02:44:28.333Z,19.54
2023-04-18T02:46:59.776Z,19.54
2023-04-18T02:49:30.358Z,19.54
2023-04-18T02:52:00.625Z,19.54
2023-04-18T02:54:32.338Z,19.42
2023-04-18T02:57:09.649Z,19.26
2023-04-18T03:00:03.135Z,19.06
2023-04-18T03:03:00.622Z,18.92
2023-04-18T03:05:41.475Z,18.88
2023-04-18T03:08:13.330Z,18.87
2023-04-18T03:10:44.638Z,18.78
2023-04-18T03:13:16.228Z,18.67
2023-04-18T03:15:47.458Z,18.64
2023-04-18T03:18:19.370Z,18.61
2023-04-18T03:20:49.982Z,18.61
2023-04-18T03:23:21.389Z,18.61
2023-04-18T03:25:52.522Z,18.64
2023-04-18T03:28:24.678Z,18.62
2023-04-18T03:30:55.135Z,18.54
2023-04-18T03:33:26.201Z,18.51
2023-04-18T03:36:06.054Z,18.47
2023-04-18T03:38:37.249Z,18.45
2023-04-18T03:41:07.786Z,18.43
2023-04-18T03:43:40.028Z,18.44
2023-04-18T03:46:10.414Z,18.40
2023-04-18T03:48:41.219Z,18.34
2023-04-18T03:51:14.573Z,18.33
2023-04-18T03:53:46.218Z,18.28
2023-04-18T03:56:17.624Z,18.30
2023-04-18T03:58:54.531Z,18.24
2023-04-18T04:01:26.383Z,18.27
2023-04-18T04:03:58.341Z,18.27
2023-04-18T04:06:30.388Z,18.26
2023-04-18T04:09:01.958Z,18.26
2023-04-18T04:11:32.815Z,18.24
2023-04-18T04:14:03.748Z,18.21
2023-04-18T04:16:41.701Z,18.21
2023-04-18T04:19:14.681Z,18.20
2023-04-18T04:22:08.862Z,18.34
2023-04-18T04:24:40.222Z,18.27
2023-04-18T04:27:12.656Z,18.21
2023-04-18T04:29:45.265Z,18.20
2023-04-18T04:32:19.955Z,18.20
2023-04-18T04:34:52.199Z,18.16
2023-04-18T04:37:23.648Z,18.11
2023-04-18T04:40:08.997Z,18.17
2023-04-18T04:42:49.730Z,18.17
2023-04-18T04:45:25.712Z,18.13
2023-04-18T04:47:56.090Z,18.20
2023-04-18T04:50:27.871Z,18.16
2023-04-18T04:52:58.421Z,18.20
2023-04-18T04:55:29.656Z,18.24
2023-04-18T04:58:01.598Z,18.21
2023-04-18T05:00:55.231Z,18.26
2023-04-18T05:03:26.302Z,18.28
2023-04-18T05:05:58.438Z,18.30
2023-04-18T05:08:28.890Z,18.34
2023-04-18T05:10:59.086Z,18.28
2023-04-18T05:13:30.069Z,18.28
2023-04-18T05:16:01.537Z,18.24
2023-04-18T05:18:33.044Z,18.20
2023-04-18T05:21:06.537Z,18.16
2023-04-18T05:23:38.517Z,18.13
2023-04-18T05:26:10.507Z,18.06
2023-04-18T05:28:40.919Z,18.03
2023-04-18T05:31:12.769Z,18.01
2023-04-18T05:33:43.164Z,17.90
2023-04-18T05:36:14.623Z,17.83
2023-04-18T05:38:45.975Z,17.76
2023-04-18T05:41:17.997Z,17.72
2023-04-18T05:43:58.133Z,17.72
2023-04-18T05:46:36.469Z,17.72
2023-04-18T05:49:07.612Z,17.72
2023-04-18T05:51:38.927Z,17.65
2023-04-18T05:54:10.197Z,17.66
2023-04-18T05:56:42.007Z,17.62
2023-04-18T05:59:12.738Z,17.59
2023-04-18T06:01:43.021Z,17.56
2023-04-18T06:04:15.128Z,17.53
2023-04-18T06:06:45.818Z,17.52
2023-04-18T06:09:17.190Z,17.56
2023-04-18T06:11:49.195Z,17.62
2023-04-18T06:14:21.193Z,17.63
2023-04-18T06:16:52.059Z,17.70
2023-04-18T06:19:22.513Z,17.70
2023-04-18T06:21:57.642Z,17.70
2023-04-18T06:24:31.412Z,17.67
2023-04-18T06:27:03.092Z,17.67
2023-04-18T06:29:36.224Z,17.66
2023-04-18T06:32:08.373Z,17.69
2023-04-18T06:34:41.176Z,17.70
2023-04-18T06:37:12.416Z,17.69
2023-04-18T06:39:43.827Z,17.67
2023-04-18T06:42:15.195Z,17.65
2023-04-18T06:44:51.327Z,17.61
2023-04-18T06:47:21.881Z,17.55
2023-04-18T06:49:52.426Z,17.52
2023-04-18T06:52:23.258Z,17.47
2023-04-18T06:54:54.903Z,17.40
2023-04-18T06:57:26.003Z,17.36
2023-04-18T06:59:56.347Z,17.32
2023-04-18T07:02:27.253Z,17.29
2023-04-18T07:04:58.730Z,17.29
2023-04-18T07:07:28.855Z,17.25
2023-04-18T07:10:00.327Z,17.21
2023-04-18T07:12:30.790Z,17.16
2023-04-18T07:15:00.807Z,17.11
2023-04-18T07:17:31.335Z,17.10
2023-04-18T07:20:01.653Z,17.11
2023-04-18T07:22:32.514Z,17.01
2023-04-18T07:25:02.789Z,16.96
2023-04-18T07:27:33.946Z,17.01
2023-04-18T07:30:06.369Z,16.95
2023-04-18T07:32:38.141Z,16.96
2023-04-18T07:35:10.635Z,16.92
2023-04-18T07:37:41.350Z,16.98
2023-04-18T07:40:12.083Z,16.95
2023-04-18T07:42:43.626Z,16.89
2023-04-18T07:45:13.952Z,16.92
2023-04-18T07:47:45.856Z,16.94
2023-04-18T07:50:16.140Z,16.95
2023-04-18T07:52:49.885Z,16.92
2023-04-18T07:55:21.339Z,16.92
2023-04-18T07:57:52.803Z,16.91
2023-04-18T08:00:24.390Z,16.88
2023-04-18T08:02:54.996Z,16.84
2023-04-18T08:05:26.099Z,16.82
2023-04-18T08:07:56.574Z,16.81
2023-04-18T08:10:28.496Z,16.81
2023-04-18T08:12:58.652Z,16.84
2023-04-18T08:15:30.370Z,16.84
2023-04-18T08:18:02.233Z,16.82
2023-04-18T08:20:32.645Z,16.82
2023-04-18T08:23:08.617Z,16.84
2023-04-18T08:25:41.846Z,16.84
2023-04-18T08:28:13.192Z,16.88
2023-04-18T08:30:45.887Z,16.84
2023-04-18T08:33:16.617Z,16.82
2023-04-18T08:35:46.734Z,16.82
2023-04-18T08:38:19.587Z,16.80
2023-04-18T08:40:49.976Z,16.78
2023-04-18T08:43:21.785Z,16.75
2023-04-18T08:45:53.038Z,16.75
2023-04-18T08:48:25.208Z,16.71
2023-04-18T08:51:00.116Z,16.68
2023-04-18T08:53:31.225Z,16.65
2023-04-18T08:56:02.838Z,16.65
2023-04-18T08:58:36.045Z,16.63
2023-04-18T09:01:07.327Z,16.63
2023-04-18T09:03:43.787Z,16.64
2023-04-18T09:06:15.227Z,16.60
2023-04-18T09:08:56.520Z,16.60
2023-04-18T09:11:30.298Z,16.60
2023-04-18T09:16:29.048Z,16.53
2023-04-18T09:19:14.790Z,16.54
2023-04-18T09:21:48.480Z,16.54
2023-04-18T09:24:28.388Z,16.54
2023-04-18T09:27:01.796Z,16.57
2023-04-18T09:29:52.043Z,16.59
2023-04-18T09:32:28.244Z,16.61
2023-04-18T09:35:04.998Z,16.65
2023-04-18T09:37:35.824Z,16.67
2023-04-18T09:40:20.680Z,16.64
2023-04-18T09:42:54.675Z,16.61
2023-04-18T09:45:26.675Z,16.64
2023-04-18T09:47:57.691Z,16.68
2023-04-18T09:50:28.555Z,16.67
2023-04-18T09:53:00.212Z,16.70
2023-04-18T09:55:33.846Z,16.71
2023-04-18T09:58:07.931Z,16.74
2023-04-18T10:00:40.336Z,16.80
2023-04-18T10:03:13.686Z,16.82
2023-04-18T10:05:44.477Z,16.84
2023-04-18T10:08:16.513Z,16.85
2023-04-18T10:10:46.627Z,16.91
2023-04-18T10:13:17.629Z,16.91
2023-04-18T10:15:50.567Z,16.95
2023-04-18T10:18:26.481Z,17.01
2023-04-18T10:21:04.767Z,17.04
2023-04-18T10:23:37.667Z,17.04
2023-04-18T10:26:13.723Z,17.15
2023-04-18T10:28:55.827Z,17.23
2023-04-18T10:31:30.963Z,17.31
2023-04-18T10:34:18.317Z,17.40
2023-04-18T10:37:08.458Z,17.52
2023-04-18T10:40:00.589Z,17.56
2023-04-18T10:42:49.126Z,17.70
2023-04-18T10:45:20.925Z,17.77
2023-04-18T10:47:52.240Z,17.91
2023-04-18T10:50:23.283Z,18.04
2023-04-18T10:52:54.338Z,18.95
2023-04-18T10:55:31.152Z,23.95
2023-04-18T10:58:02.351Z,25.41
2023-04-18T11:00:33.675Z,26.43
2023-04-18T11:03:05.300Z,26.33
2023-04-18T11:05:37.404Z,26.20
2023-04-18T11:08:23.253Z,25.61
2023-04-18T11:11:06.287Z,24.15
2023-04-18T11:13:39.383Z,23.31
2023-04-18T11:16:10.505Z,23.14
2023-04-18T11:18:43.806Z,23.07
2023-04-18T11:21:14.892Z,23.21
2023-04-18T11:23:45.131Z,23.28
2023-04-18T11:26:18.675Z,23.47
2023-04-18T11:28:55.119Z,23.45
2023-04-18T11:31:27.184Z,23.69
2023-04-18T11:34:01.607Z,23.89
2023-04-18T11:36:36.515Z,23.95
2023-04-18T11:39:08.191Z,23.88
2023-04-18T11:41:39.164Z,24.04
2023-04-18T11:44:09.753Z,24.09
2023-04-18T11:46:41.663Z,24.43
2023-04-18T11:49:35.301Z,24.70
2023-04-18T11:52:14.849Z,24.76
2023-04-18T11:54:47.685Z,24.73
2023-04-18T11:57:28.067Z,24.83
2023-04-18T12:00:00.999Z,25.03
2023-04-18T12:02:48.566Z,24.95
2023-04-18T12:05:30.847Z,24.67
2023-04-18T12:08:14.657Z,24.53
2023-04-18T12:10:54.239Z,24.47
2023-04-18T12:13:33.792Z,24.91
2023-04-18T12:16:06.060Z,24.81
2023-04-18T12:18:37.928Z,24.64
2023-04-18T12:21:08.262Z,24.29
2023-04-18T12:23:44.209Z,24.19
2023-04-18T12:26:17.914Z,24.16
2023-04-18T12:28:49.475Z,24.13
2023-04-18T12:31:20.906Z,24.41
2023-04-18T12:33:53.382Z,24.76
2023-04-18T12:36:24.848Z,25.10
2023-04-18T12:38:55.056Z,25.15
2023-04-18T12:41:25.857Z,25.32
2023-04-18T12:43:56.796Z,25.41
2023-04-18T12:46:28.187Z,25.69
2023-04-18T12:49:00.149Z,25.28
2023-04-18T12:51:30.344Z,24.77
2023-04-18T12:54:00.739Z,24.73
2023-04-18T12:56:32.389Z,24.79
2023-04-18T12:59:03.292Z,24.67
2023-04-18T13:01:34.532Z,24.61
2023-04-18T13:04:12.293Z,24.76
2023-04-18T13:06:43.248Z,24.94
2023-04-18T13:09:14.904Z,25.18
2023-04-18T13:11:49.857Z,25.43
2023-04-18T13:14:21.060Z,25.39
2023-04-18T13:16:52.484Z,25.27
2023-04-18T13:19:23.769Z,25.62
2023-04-18T13:21:55.522Z,25.99
2023-04-18T13:24:25.764Z,26.06
2023-04-18T13:26:56.629Z,26.26
2023-04-18T13:29:26.795Z,26.57
2023-04-18T13:31:57.769Z,25.99
2023-04-18T13:34:28.527Z,25.88
2023-04-18T13:36:59.677Z,26.20
2023-04-18T13:39:30.455Z,26.14
2023-04-18T13:42:01.790Z,26.03
2023-04-18T13:44:33.264Z,26.32
2023-04-18T13:47:07.093Z,26.23
2023-04-18T13:49:38.587Z,26.33
2023-04-18T13:52:09.969Z,25.51
2023-04-18T13:54:40.226Z,25.65
2023-04-18T13:57:13.966Z,25.76
2023-04-18T13:59:44.366Z,25.89
2023-04-18T14:02:14.594Z,26.26
2023-04-18T14:04:45.039Z,26.29
2023-04-18T14:07:15.137Z,26.02
2023-04-18T14:09:45.973Z,26.24
2023-04-18T14:12:16.191Z,25.99
2023-04-18T14:14:47.484Z,26.00
2023-04-18T14:17:18.615Z,25.89
2023-04-18T14:20:27.990Z,25.73
2023-04-18T14:22:59.283Z,25.72
2023-04-18T14:25:32.034Z,25.73
2023-04-18T14:28:12.987Z,25.95
2023-04-18T14:30:44.011Z,25.31
2023-04-18T14:33:15.479Z,25.48
2023-04-18T14:35:46.488Z,25.63
2023-04-18T14:38:17.502Z,25.46
2023-04-18T14:40:49.315Z,25.24
2023-04-18T14:43:19.792Z,25.38
2023-04-18T14:45:50.981Z,25.49
2023-04-18T14:48:24.008Z,25.35
2023-04-18T14:51:02.330Z,25.39
2023-04-18T14:53:32.561Z,25.53
2023-04-18T14:56:03.581Z,25.59
2023-04-18T14:58:35.030Z,25.30
2023-04-18T15:01:05.626Z,25.11
2023-04-18T15:03:37.000Z,25.10
2023-04-18T15:06:08.802Z,24.95
2023-04-18T15:08:39.734Z,25.01
2023-04-18T15:11:11.500Z,25.04
2023-04-18T15:13:43.023Z,24.97
2023-04-18T15:16:13.612Z,25.08
2023-04-18T15:18:44.954Z,25.12
2023-04-18T15:21:15.328Z,25.03
2023-04-18T15:23:45.298Z,25.08
2023-04-18T15:26:15.490Z,25.08
2023-04-18T15:28:48.085Z,25.06
2023-04-18T15:31:19.996Z,25.01
2023-04-18T15:33:50.243Z,25.18
2023-04-18T15:36:20.297Z,25.11
2023-04-18T15:38:51.863Z,24.95
2023-04-18T15:41:23.681Z,25.25
2023-04-18T15:43:55.166Z,25.04
2023-04-18T15:46:26.703Z,25.01
2023-04-18T15:48:57.485Z,25.10
2023-04-18T15:51:32.410Z,25.07
2023-04-18T15:54:03.995Z,25.01
2023-04-18T15:56:35.553Z,25.06
2023-04-18T15:59:08.180Z,25.07
2023-04-18T16:01:39.814Z,24.92
2023-04-18T16:04:11.036Z,24.98
2023-04-18T16:06:41.821Z,24.98
2023-04-18T16:09:12.923Z,25.04
2023-04-18T16:11:43.396Z,25.06
2023-04-18T16:14:15.334Z,25.03
2023-04-18T16:16:45.876Z,24.98
2023-04-18T16:19:16.487Z,24.88
2023-04-18T16:21:49.378Z,24.91
2023-04-18T16:24:21.052Z,24.95
2023-04-18T16:26:52.511Z,25.07
2023-04-18T16:29:22.987Z,25.07
2023-04-18T16:31:53.614Z,24.97
2023-04-18T16:34:24.606Z,24.97
2023-04-18T16:36:58.821Z,25.14
2023-04-18T16:39:30.653Z,25.06
2023-04-18T16:42:00.919Z,25.07
2023-04-18T16:44:32.153Z,25.14
2023-04-18T16:47:07.427Z,24.50
2023-04-18T16:49:39.677Z,24.60
2023-04-18T16:52:11.340Z,24.30
2023-04-18T16:54:43.552Z,24.73
2023-04-18T16:57:15.186Z,24.76
2023-04-18T16:59:47.944Z,24.49
2023-04-18T17:02:18.321Z,23.81
2023-04-18T17:04:49.584Z,23.72
2023-04-18T17:07:19.874Z,24.41
2023-04-18T17:09:50.786Z,23.84
2023-04-18T17:12:22.026Z,23.50
2023-04-18T17:14:52.233Z,24.35
2023-04-18T17:17:22.321Z,24.69
2023-04-18T17:19:52.582Z,24.86
2023-04-18T17:22:22.833Z,24.76
2023-04-18T17:24:53.768Z,24.86
2023-04-18T17:27:36.953Z,24.88
2023-04-18T17:30:07.935Z,24.88
2023-04-18T17:32:38.157Z,24.84
2023-04-18T17:35:10.239Z,24.86
2023-04-18T17:37:40.787Z,24.84
2023-04-18T17:40:14.102Z,24.76
2023-04-18T17:42:46.014Z,24.79
2023-04-18T17:45:17.097Z,24.87
2023-04-18T17:47:48.508Z,24.90
2023-04-18T17:50:19.063Z,24.87
2023-04-18T17:52:49.683Z,24.80
2023-04-18T17:55:20.725Z,24.69
2023-04-18T17:57:51.886Z,24.77
2023-04-18T18:00:22.533Z,24.86
2023-04-18T18:02:52.793Z,24.88
2023-04-18T18:05:23.551Z,24.98
2023-04-18T18:07:55.491Z,25.10
2023-04-18T18:10:27.523Z,25.35
2023-04-18T18:12:58.746Z,25.66
2023-04-18T18:15:28.816Z,25.83
2023-04-18T18:17:59.633Z,25.85
2023-04-18T18:20:29.756Z,25.53
2023-04-18T18:23:01.828Z,25.38
2023-04-18T18:25:32.992Z,25.15
2023-04-18T18:28:06.295Z,24.92
2023-04-18T18:30:38.588Z,24.97
2023-04-18T18:33:09.104Z,24.91
2023-04-18T18:35:39.133Z,24.92
2023-04-18T18:38:10.616Z,24.39
2023-04-18T18:40:40.834Z,24.67
2023-04-18T18:43:11.274Z,24.97
2023-04-18T18:45:42.596Z,25.21
2023-04-18T18:48:13.015Z,25.38
2023-04-18T18:50:43.319Z,25.63
2023-04-18T18:53:13.739Z,25.68
2023-04-18T18:55:43.738Z,25.63
2023-04-18T18:58:14.641Z,25.75
2023-04-18T19:00:45.845Z,25.68
2023-04-18T19:03:20.391Z,25.61
2023-04-18T19:05:51.443Z,25.66
2023-04-18T19:08:23.474Z,25.58
2023-04-18T19:10:55.500Z,25.49
2023-04-18T19:13:26.531Z,25.45
2023-04-18T19:15:56.839Z,25.43
2023-04-18T19:18:27.262Z,25.51
2023-04-18T19:20:58.551Z,25.38
2023-04-18T19:23:29.217Z,25.32
2023-04-18T19:25:59.598Z,25.21
2023-04-18T19:28:30.608Z,25.21
2023-04-18T19:31:00.797Z,25.20
2023-04-18T19:33:33.102Z,25.12
2023-04-18T19:36:03.643Z,25.07
2023-04-18T19:38:35.154Z,25.03
2023-04-18T19:41:06.303Z,24.92
2023-04-18T19:43:37.781Z,24.95
2023-04-18T19:46:08.095Z,24.84
2023-04-18T19:48:39.645Z,24.74
2023-04-18T19:51:10.088Z,24.74
2023-04-18T19:53:40.288Z,24.66
2023-04-18T19:56:12.596Z,24.59
2023-04-18T19:58:48.121Z,24.43
2023-04-18T20:01:23.353Z,24.28
2023-04-18T20:03:56.588Z,23.75
2023-04-18T20:06:28.266Z,23.44
2023-04-18T20:08:59.462Z,23.24
2023-04-18T20:11:29.679Z,23.07
2023-04-18T20:14:00.518Z,22.99
2023-04-18T20:16:31.234Z,22.90
2023-04-18T20:19:03.771Z,22.82
2023-04-18T20:21:34.022Z,22.76
2023-04-18T20:24:05.018Z,22.73
2023-04-18T20:26:36.741Z,22.67
2023-04-18T20:29:07.764Z,22.59
2023-04-18T20:31:39.198Z,22.57
2023-04-18T20:34:11.818Z,22.45
2023-04-18T20:36:42.906Z,22.38
2023-04-18T20:39:16.348Z,22.31
2023-04-18T20:41:50.007Z,22.26
2023-04-18T20:44:23.625Z,22.22
2023-04-18T20:46:54.935Z,22.33
2023-04-18T20:49:25.319Z,22.16
2023-04-18T20:51:56.105Z,22.12
2023-04-18T20:54:27.050Z,22.04
2023-04-18T20:56:57.561Z,22.06
2023-04-18T20:59:28.857Z,22.11
2023-04-18T21:01:59.576Z,22.08
2023-04-18T21:04:30.152Z,22.01
2023-04-18T21:07:01.177Z,21.91
2023-04-18T21:09:35.332Z,21.90
2023-04-18T21:12:07.746Z,21.81
2023-04-18T21:14:38.049Z,21.78
2023-04-18T21:17:11.863Z,21.77
2023-04-18T21:19:42.277Z,21.67
2023-04-18T21:22:13.056Z,21.51
2023-04-18T21:24:44.706Z,21.48
2023-04-18T21:27:17.628Z,21.48
2023-04-18T21:29:48.763Z,21.58
2023-04-18T21:32:18.760Z,21.71
2023-04-18T21:34:48.977Z,21.53
2023-04-18T21:37:19.933Z,21.44
2023-04-18T21:39:51.420Z,21.40
2023-04-18T21:42:22.361Z,21.34
2023-04-18T21:44:52.926Z,21.36
2023-04-18T21:47:23.249Z,21.31
2023-04-18T21:49:53.386Z,21.30
2023-04-18T21:52:23.810Z,21.22
2023-04-18T21:54:54.567Z,21.16
2023-04-18T21:57:25.453Z,21.07
2023-04-18T21:59:56.945Z,21.00
2023-04-18T22:02:28.592Z,20.90
2023-04-18T22:04:59.363Z,20.83
2023-04-18T22:07:31.814Z,20.82
2023-04-18T22:10:03.226Z,20.80
2023-04-18T22:12:34.900Z,20.79
2023-04-18T22:15:05.399Z,20.71
2023-04-18T22:17:36.424Z,20.62
2023-04-18T22:20:07.674Z,20.56
2023-04-18T22:22:38.208Z,20.52
2023-04-18T22:25:12.464Z,20.53
2023-04-18T22:27:44.437Z,20.49
2023-04-18T22:30:16.085Z,20.46
2023-04-18T22:32:46.979Z,20.42
2023-04-18T22:35:17.812Z,20.38
2023-04-18T22:37:47.989Z,20.34
2023-04-18T22:40:18.495Z,20.35
2023-04-18T22:42:49.561Z,20.36
2023-04-18T22:45:21.220Z,20.38
2023-04-18T22:47:51.354Z,20.38
2023-04-18T22:50:21.533Z,20.38
2023-04-18T22:52:53.217Z,20.34
2023-04-18T22:55:24.253Z,20.32
2023-04-18T22:57:54.667Z,20.26
2023-04-18T23:00:25.255Z,20.26
2023-04-18T23:02:55.970Z,20.22
2023-04-18T23:05:26.949Z,20.21
2023-04-18T23:08:00.114Z,20.22
2023-04-18T23:10:30.714Z,20.17
2023-04-18T23:13:00.869Z,20.17
2023-04-18T23:15:31.798Z,20.10
2023-04-18T23:18:02.699Z,20.11
2023-04-18T23:20:34.031Z,20.05
2023-04-18T23:23:04.215Z,20.04
2023-04-18T23:25:37.380Z,19.97
2023-04-18T23:28:09.074Z,19.93
2023-04-18T23:30:39.528Z,19.85
2023-04-18T23:33:10.668Z,19.81
2023-04-18T23:35:41.123Z,19.85
2023-04-18T23:38:11.263Z,19.83
2023-04-18T23:40:41.571Z,19.81
2023-04-18T23:43:11.603Z,19.71
2023-04-18T23:45:41.661Z,19.57
2023-04-18T23:48:11.835Z,19.47
2023-04-18T23:50:53.937Z,19.45
2023-04-18T23:53:25.171Z,19.30
2023-04-18T23:55:56.523Z,19.32
2023-04-18T23:58:28.842Z,19.24
